createdAt,value
2023-01-23T00:00:27.142Z,-3.23
2023-01-23T00:01:27.137Z,-3.26
2023-01-23T00:02:27.235Z,-3.23
2023-01-23T00:03:27.083Z,-3.23
2023-01-23T00:04:27.120Z,-3.26
2023-01-23T00:05:27.074Z,-3.31
2023-01-23T00:06:27.114Z,-3.21
2023-01-23T00:07:27.041Z,-3.15
2023-01-23T00:08:27.109Z,-3.15
2023-01-23T00:09:27.160Z,-3.02
2023-01-23T00:10:27.040Z,-3.12
2023-01-23T00:11:27.040Z,-3.18
2023-01-23T00:12:27.039Z,-3.18
2023-01-23T00:13:27.019Z,-3.12
2023-01-23T00:14:26.980Z,-3.09
2023-01-23T00:15:26.967Z,-3.09
2023-01-23T00:16:26.992Z,-3.20
2023-01-23T00:17:26.958Z,-3.18
2023-01-23T00:18:26.941Z,-3.09
2023-01-23T00:19:26.922Z,-3.21
2023-01-23T00:20:26.928Z,-3.23
2023-01-23T00:21:26.936Z,-3.23
2023-01-23T00:22:26.899Z,-3.24
2023-01-23T00:23:26.897Z,-3.24
2023-01-23T00:24:26.866Z,-3.21
2023-01-23T00:25:26.974Z,-3.24
2023-01-23T00:26:26.859Z,-3.23
2023-01-23T00:27:26.894Z,-3.26
2023-01-23T00:28:26.840Z,-3.24
2023-01-23T00:29:26.861Z,-3.27
2023-01-23T00:30:26.851Z,-3.30
2023-01-23T00:31:26.991Z,-3.30
2023-01-23T00:32:26.844Z,-3.30
2023-01-23T00:33:26.837Z,-3.24
2023-01-23T00:34:26.789Z,-3.27
2023-01-23T00:35:26.760Z,-3.31
2023-01-23T00:36:26.765Z,-3.30
2023-01-23T00:37:26.754Z,-3.26
2023-01-23T00:38:26.745Z,-3.24
2023-01-23T00:39:26.728Z,-3.26
2023-01-23T00:40:26.698Z,-3.24
2023-01-23T00:41:26.910Z,-3.26
2023-01-23T00:42:26.719Z,-3.27
2023-01-23T00:43:26.681Z,-3.31
2023-01-23T00:44:26.705Z,-3.27
2023-01-23T00:45:26.673Z,-3.26
2023-01-23T00:46:26.694Z,-3.31
2023-01-23T00:47:26.646Z,-3.34
2023-01-23T00:48:26.619Z,-3.36
2023-01-23T00:49:26.621Z,-3.41
2023-01-23T00:50:26.631Z,-3.36
2023-01-23T00:51:26.743Z,-3.36
2023-01-23T00:52:26.578Z,-3.34
2023-01-23T00:53:26.596Z,-3.33
2023-01-23T00:54:26.611Z,-3.23
2023-01-23T00:55:26.565Z,-3.24
2023-01-23T00:56:26.539Z,-3.26
2023-01-23T00:57:26.658Z,-3.21
2023-01-23T00:58:26.560Z,-3.24
2023-01-23T00:59:26.562Z,-3.24
2023-01-23T01:00:26.494Z,-3.10
2023-01-23T01:01:26.521Z,-3.15
2023-01-23T01:02:26.518Z,-3.12
2023-01-23T01:03:26.483Z,-3.09
2023-01-23T01:04:26.458Z,-3.13
2023-01-23T01:05:26.454Z,-3.15
2023-01-23T01:06:26.447Z,-3.20
2023-01-23T01:07:26.497Z,-3.23
2023-01-23T01:08:26.470Z,-3.21
2023-01-23T01:09:26.449Z,-3.16
2023-01-23T01:10:26.393Z,-3.15
2023-01-23T01:11:26.409Z,-3.13
2023-01-23T01:12:26.456Z,-3.09
2023-01-23T01:13:26.481Z,-3.18
2023-01-23T01:14:26.366Z,-3.23
2023-01-23T01:15:26.357Z,-3.27
2023-01-23T01:16:26.409Z,-3.27
2023-01-23T01:17:26.353Z,-3.24
2023-01-23T01:18:26.361Z,-3.29
2023-01-23T01:19:26.309Z,-3.24
2023-01-23T01:20:26.291Z,-3.15
2023-01-23T01:21:26.335Z,-3.20
2023-01-23T01:22:26.317Z,-3.26
2023-01-23T01:23:26.308Z,-3.18
2023-01-23T01:24:26.289Z,-3.16
2023-01-23T01:25:26.247Z,-3.15
2023-01-23T01:26:26.230Z,-3.09
2023-01-23T01:27:26.235Z,-3.20
2023-01-23T01:28:33.976Z,-3.02
2023-01-23T01:29:26.218Z,-3.08
2023-01-23T01:30:26.185Z,-3.12
2023-01-23T01:31:26.332Z,-3.20
2023-01-23T01:32:26.181Z,-3.13
2023-01-23T01:33:26.175Z,-3.09
2023-01-23T01:34:26.262Z,-3.15
2023-01-23T01:35:26.163Z,-3.15
2023-01-23T01:36:26.134Z,-3.15
2023-01-23T01:37:26.171Z,-3.23
2023-01-23T01:38:26.123Z,-3.21
2023-01-23T01:39:26.107Z,-3.24
2023-01-23T01:40:26.124Z,-3.12
2023-01-23T01:41:26.087Z,-3.10
2023-01-23T01:42:26.083Z,-3.18
2023-01-23T01:43:26.063Z,-3.15
2023-01-23T01:44:26.219Z,-3.10
2023-01-23T01:45:26.071Z,-3.23
2023-01-23T01:46:26.086Z,-3.27
2023-01-23T01:47:26.020Z,-3.27
2023-01-23T01:48:26.020Z,-3.23
2023-01-23T01:49:26.041Z,-3.23
2023-01-23T01:50:25.993Z,-3.27
2023-01-23T01:51:26.084Z,-3.30
2023-01-23T01:52:25.981Z,-3.26
2023-01-23T01:53:25.971Z,-3.29
2023-01-23T01:54:25.974Z,-3.21
2023-01-23T01:55:25.981Z,-3.18
2023-01-23T01:56:25.920Z,-3.10
2023-01-23T01:57:25.920Z,-3.18
2023-01-23T01:58:25.908Z,-3.26
2023-01-23T01:59:25.982Z,-3.20
2023-01-23T02:00:26.067Z,-3.23
2023-01-23T02:01:25.875Z,-3.27
2023-01-23T02:02:25.890Z,-3.30
2023-01-23T02:03:25.861Z,-3.34
2023-01-23T02:04:25.843Z,-3.34
2023-01-23T02:05:25.854Z,-3.26
2023-01-23T02:06:25.824Z,-3.23
2023-01-23T02:07:25.892Z,-3.30
2023-01-23T02:08:25.819Z,-3.31
2023-01-23T02:09:25.844Z,-3.33
2023-01-23T02:10:25.841Z,-3.36
2023-01-23T02:11:25.765Z,-3.31
2023-01-23T02:12:25.757Z,-3.36
2023-01-23T02:13:25.829Z,-3.39
2023-01-23T02:14:25.883Z,-3.41
2023-01-23T02:15:25.778Z,-3.38
2023-01-23T02:16:25.898Z,-3.31
2023-01-23T02:17:25.762Z,-3.33
2023-01-23T02:18:25.725Z,-3.31
2023-01-23T02:19:25.710Z,-3.33
2023-01-23T02:20:25.711Z,-3.41
2023-01-23T02:21:25.667Z,-3.41
2023-01-23T02:22:25.698Z,-3.44
2023-01-23T02:23:25.708Z,-3.39
2023-01-23T02:24:25.714Z,-3.39
2023-01-23T02:25:25.627Z,-3.39
2023-01-23T02:26:25.644Z,-3.38
2023-01-23T02:27:25.627Z,-3.41
2023-01-23T02:28:25.589Z,-3.45
2023-01-23T02:29:25.639Z,-3.42
2023-01-23T02:30:25.600Z,-3.44
2023-01-23T02:31:25.709Z,-3.42
2023-01-23T02:32:25.680Z,-3.42
2023-01-23T02:33:25.549Z,-3.39
2023-01-23T02:34:25.530Z,-3.36
2023-01-23T02:35:25.525Z,-3.38
2023-01-23T02:36:25.547Z,-3.38
2023-01-23T02:37:25.531Z,-3.33
2023-01-23T02:38:25.501Z,-3.29
2023-01-23T02:39:25.487Z,-3.27
2023-01-23T02:40:25.496Z,-3.27
2023-01-23T02:41:25.528Z,-3.31
2023-01-23T02:42:25.531Z,-3.29
2023-01-23T02:43:25.499Z,-3.31
2023-01-23T02:44:25.453Z,-3.39
2023-01-23T02:45:25.502Z,-3.39
2023-01-23T02:46:25.438Z,-3.33
2023-01-23T02:47:30.364Z,-3.33
2023-01-23T02:48:25.400Z,-3.30
2023-01-23T02:49:25.427Z,-3.31
2023-01-23T02:50:25.401Z,-3.34
2023-01-23T02:51:25.459Z,-3.33
2023-01-23T02:52:25.348Z,-3.31
2023-01-23T02:53:25.358Z,-3.29
2023-01-23T02:54:25.339Z,-3.29
2023-01-23T02:55:25.353Z,-3.34
2023-01-23T02:56:25.326Z,-3.41
2023-01-23T02:57:25.337Z,-3.45
2023-01-23T02:58:25.350Z,-3.42
2023-01-23T02:59:25.325Z,-3.38
2023-01-23T03:00:25.357Z,-3.41
2023-01-23T03:01:25.281Z,-3.39
2023-01-23T03:02:25.365Z,-3.38
2023-01-23T03:03:25.369Z,-3.41
2023-01-23T03:04:25.278Z,-3.38
2023-01-23T03:05:25.257Z,-3.41
2023-01-23T03:06:25.286Z,-3.47
2023-01-23T03:07:25.215Z,-3.41
2023-01-23T03:08:25.196Z,-3.44
2023-01-23T03:09:25.739Z,-3.45
2023-01-23T03:10:25.187Z,-3.44
2023-01-23T03:11:25.164Z,-3.44
2023-01-23T03:12:25.195Z,-3.45
2023-01-23T03:13:25.158Z,-3.49
2023-01-23T03:14:25.157Z,-3.52
2023-01-23T03:15:25.159Z,-3.52
2023-01-23T03:16:25.168Z,-3.65
2023-01-23T03:17:35.928Z,-3.59
2023-01-23T03:18:25.141Z,-3.59
2023-01-23T03:19:25.244Z,-3.55
2023-01-23T03:20:25.123Z,-3.60
2023-01-23T03:21:25.078Z,-3.63
2023-01-23T03:22:25.097Z,-3.62
2023-01-23T03:23:25.046Z,-3.51
2023-01-23T03:24:25.057Z,-3.55
2023-01-23T03:25:25.029Z,-3.65
2023-01-23T03:26:25.027Z,-3.67
2023-01-23T03:27:25.038Z,-3.65
2023-01-23T03:28:24.992Z,-3.63
2023-01-23T03:29:25.040Z,-3.67
2023-01-23T03:30:25.106Z,-3.63
2023-01-23T03:31:24.989Z,-3.65
2023-01-23T03:32:25.019Z,-3.63
2023-01-23T03:33:24.982Z,-3.65
2023-01-23T03:34:24.981Z,-3.60
2023-01-23T03:35:25.076Z,-3.57
2023-01-23T03:36:24.920Z,-3.54
2023-01-23T03:37:24.973Z,-3.57
2023-01-23T03:38:24.903Z,-3.57
2023-01-23T03:39:24.908Z,-3.59
2023-01-23T03:40:24.939Z,-3.59
2023-01-23T03:41:24.910Z,-3.66
2023-01-23T03:42:24.903Z,-3.72
2023-01-23T03:43:24.850Z,-3.67
2023-01-23T03:44:24.904Z,-3.66
2023-01-23T03:45:24.924Z,-3.66
2023-01-23T03:46:24.822Z,-3.72
2023-01-23T03:47:24.809Z,-3.69
2023-01-23T03:48:24.812Z,-3.70
2023-01-23T03:49:24.783Z,-3.70
2023-01-23T03:50:24.799Z,-3.63
2023-01-23T03:51:25.046Z,-3.63
2023-01-23T03:52:24.772Z,-3.67
2023-01-23T03:53:24.759Z,-3.77
2023-01-23T03:54:24.735Z,-3.72
2023-01-23T03:55:24.724Z,-3.72
2023-01-23T03:56:24.779Z,-3.79
2023-01-23T03:57:24.695Z,-3.78
2023-01-23T03:58:24.689Z,-3.82
2023-01-23T03:59:24.695Z,-3.87
2023-01-23T04:00:24.689Z,-3.89
2023-01-23T04:01:24.708Z,-3.88
2023-01-23T04:02:24.802Z,-3.91
2023-01-23T04:03:24.643Z,-3.94
2023-01-23T04:04:24.673Z,-3.91
2023-01-23T04:05:24.702Z,-3.91
2023-01-23T04:06:24.627Z,-3.89
2023-01-23T04:07:24.768Z,-3.85
2023-01-23T04:08:24.623Z,-3.84
2023-01-23T04:09:24.644Z,-3.87
2023-01-23T04:10:24.583Z,-3.87
2023-01-23T04:11:24.577Z,-3.82
2023-01-23T04:12:24.575Z,-3.81
2023-01-23T04:13:24.571Z,-3.84
2023-01-23T04:14:24.599Z,-3.81
2023-01-23T04:15:24.601Z,-3.84
2023-01-23T04:16:24.589Z,-3.84
2023-01-23T04:17:24.505Z,-3.74
2023-01-23T04:18:24.521Z,-3.74
2023-01-23T04:19:24.478Z,-3.77
2023-01-23T04:20:24.496Z,-3.72
2023-01-23T04:21:24.465Z,-3.74
2023-01-23T04:22:24.522Z,-3.78
2023-01-23T04:23:24.601Z,-3.79
2023-01-23T04:24:24.434Z,-3.82
2023-01-23T04:25:24.429Z,-3.79
2023-01-23T04:26:24.409Z,-3.81
2023-01-23T04:27:24.401Z,-3.84
2023-01-23T04:28:24.467Z,-3.84
2023-01-23T04:29:24.385Z,-3.85
2023-01-23T04:30:24.391Z,-3.84
2023-01-23T04:31:24.575Z,-3.79
2023-01-23T04:32:24.386Z,-3.77
2023-01-23T04:33:24.375Z,-3.81
2023-01-23T04:34:24.336Z,-3.82
2023-01-23T04:35:24.321Z,-3.72
2023-01-23T04:36:24.329Z,-3.67
2023-01-23T04:37:24.374Z,-3.72
2023-01-23T04:38:24.298Z,-3.77
2023-01-23T04:39:24.445Z,-3.70
2023-01-23T04:40:24.272Z,-3.70
2023-01-23T04:41:24.278Z,-3.74
2023-01-23T04:42:24.280Z,-3.77
2023-01-23T04:43:24.252Z,-3.79
2023-01-23T04:44:24.287Z,-3.79
2023-01-23T04:45:24.231Z,-3.72
2023-01-23T04:46:24.304Z,-3.66
2023-01-23T04:47:24.228Z,-3.67
2023-01-23T04:48:24.222Z,-3.67
2023-01-23T04:49:24.300Z,-3.63
2023-01-23T04:50:24.205Z,-3.69
2023-01-23T04:51:24.305Z,-3.70
2023-01-23T04:52:24.174Z,-3.74
2023-01-23T04:53:24.172Z,-3.74
2023-01-23T04:54:24.202Z,-3.72
2023-01-23T04:55:24.246Z,-3.72
2023-01-23T04:56:24.175Z,-3.69
2023-01-23T04:57:24.099Z,-3.65
2023-01-23T04:58:24.094Z,-3.66
2023-01-23T04:59:24.087Z,-3.67
2023-01-23T05:00:24.129Z,-3.69
2023-01-23T05:01:24.079Z,-3.67
2023-01-23T05:02:24.166Z,-3.70
2023-01-23T05:03:24.053Z,-3.70
2023-01-23T05:04:24.049Z,-3.63
2023-01-23T05:05:24.023Z,-3.62
2023-01-23T05:06:24.039Z,-3.57
2023-01-23T05:07:24.026Z,-3.62
2023-01-23T05:08:24.028Z,-3.62
2023-01-23T05:09:23.995Z,-3.60
2023-01-23T05:10:23.976Z,-3.54
2023-01-23T05:11:24.099Z,-3.55
2023-01-23T05:12:23.963Z,-3.57
2023-01-23T05:13:24.004Z,-3.60
2023-01-23T05:14:23.941Z,-3.62
2023-01-23T05:15:23.935Z,-3.63
2023-01-23T05:16:23.934Z,-3.63
2023-01-23T05:17:34.936Z,-3.54
2023-01-23T05:18:23.911Z,-3.52
2023-01-23T05:19:23.934Z,-3.59
2023-01-23T05:20:23.870Z,-3.54
2023-01-23T05:21:23.864Z,-3.52
2023-01-23T05:22:23.891Z,-3.52
2023-01-23T05:23:23.851Z,-3.55
2023-01-23T05:24:23.873Z,-3.52
2023-01-23T05:25:23.883Z,-3.47
2023-01-23T05:26:23.838Z,-3.47
2023-01-23T05:27:23.935Z,-3.44
2023-01-23T05:28:23.818Z,-3.48
2023-01-23T05:29:23.783Z,-3.45
2023-01-23T05:30:23.834Z,-3.45
2023-01-23T05:31:23.884Z,-3.41
2023-01-23T05:32:23.780Z,-3.41
2023-01-23T05:33:23.761Z,-3.45
2023-01-23T05:34:23.760Z,-3.49
2023-01-23T05:35:23.730Z,-3.52
2023-01-23T05:36:23.778Z,-3.51
2023-01-23T05:37:23.747Z,-3.51
2023-01-23T05:38:23.706Z,-3.51
2023-01-23T05:39:23.678Z,-3.49
2023-01-23T05:40:23.685Z,-3.49
2023-01-23T05:41:25.679Z,-3.51
2023-01-23T05:42:23.666Z,-3.47
2023-01-23T05:43:23.785Z,-3.45
2023-01-23T05:44:23.672Z,-3.45
2023-01-23T05:45:23.643Z,-3.47
2023-01-23T05:46:23.702Z,-3.47
2023-01-23T05:47:28.326Z,-3.44
2023-01-23T05:48:23.676Z,-3.39
2023-01-23T05:49:23.621Z,-3.36
2023-01-23T05:50:23.590Z,-3.38
2023-01-23T05:51:23.686Z,-3.42
2023-01-23T05:52:23.574Z,-3.42
2023-01-23T05:53:23.574Z,-3.41
2023-01-23T05:54:23.693Z,-3.39
2023-01-23T05:55:23.524Z,-3.42
2023-01-23T05:56:23.557Z,-3.38
2023-01-23T05:57:23.527Z,-3.34
2023-01-23T05:58:23.500Z,-3.36
2023-01-23T05:59:23.848Z,-3.38
2023-01-23T06:00:23.488Z,-3.41
2023-01-23T06:01:23.466Z,-3.41
2023-01-23T06:02:23.614Z,-3.38
2023-01-23T06:03:23.487Z,-3.38
2023-01-23T06:04:24.221Z,-3.36
2023-01-23T06:05:23.452Z,-3.31
2023-01-23T06:06:23.426Z,-3.27
2023-01-23T06:07:23.578Z,-3.30
2023-01-23T06:08:23.409Z,-3.31
2023-01-23T06:09:23.424Z,-3.29
2023-01-23T06:10:23.402Z,-3.27
2023-01-23T06:11:23.391Z,-3.27
2023-01-23T06:12:23.355Z,-3.30
2023-01-23T06:13:23.354Z,-3.33
2023-01-23T06:14:23.370Z,-3.38
2023-01-23T06:15:23.438Z,-3.42
2023-01-23T06:16:23.356Z,-3.42
2023-01-23T06:17:28.350Z,-3.45
2023-01-23T06:18:23.334Z,-3.45
2023-01-23T06:19:23.305Z,-3.47
2023-01-23T06:20:23.275Z,-3.41
2023-01-23T06:21:23.279Z,-3.42
2023-01-23T06:22:23.262Z,-3.41
2023-01-23T06:23:23.760Z,-3.45
2023-01-23T06:24:23.279Z,-3.41
2023-01-23T06:25:23.253Z,-3.34
2023-01-23T06:26:23.213Z,-3.36
2023-01-23T06:27:23.302Z,-3.34
2023-01-23T06:28:23.226Z,-3.33
2023-01-23T06:29:30.747Z,-3.29
2023-01-23T06:30:23.272Z,-3.27
2023-01-23T06:31:23.491Z,-3.29
2023-01-23T06:32:23.180Z,-3.26
2023-01-23T06:33:23.140Z,-3.24
2023-01-23T06:34:23.154Z,-3.24
2023-01-23T06:35:23.127Z,-3.26
2023-01-23T06:36:23.117Z,-3.27
2023-01-23T06:37:23.150Z,-3.30
2023-01-23T06:38:23.098Z,-3.30
2023-01-23T06:39:23.095Z,-3.31
2023-01-23T06:40:23.080Z,-3.30
2023-01-23T06:41:23.062Z,-3.31
2023-01-23T06:42:23.058Z,-3.31
2023-01-23T06:43:23.091Z,-3.26
2023-01-23T06:44:23.026Z,-3.21
2023-01-23T06:45:23.043Z,-3.20
2023-01-23T06:46:23.107Z,-3.23
2023-01-23T06:47:23.346Z,-3.26
2023-01-23T06:48:23.024Z,-3.30
2023-01-23T06:49:23.016Z,-3.31
2023-01-23T06:50:23.295Z,-3.31
2023-01-23T06:51:23.025Z,-3.27
2023-01-23T06:52:22.995Z,-3.26
2023-01-23T06:53:22.972Z,-3.20
2023-01-23T06:54:22.965Z,-3.18
2023-01-23T06:55:22.971Z,-3.16
2023-01-23T06:56:22.932Z,-3.16
2023-01-23T06:57:22.931Z,-3.21
2023-01-23T06:58:22.908Z,-3.21
2023-01-23T06:59:22.887Z,-3.16
2023-01-23T07:00:23.243Z,-3.20
2023-01-23T07:01:22.932Z,-3.20
2023-01-23T07:02:22.901Z,-3.20
2023-01-23T07:03:23.000Z,-3.20
2023-01-23T07:04:22.859Z,-3.20
2023-01-23T07:05:22.843Z,-3.24
2023-01-23T07:06:22.863Z,-3.23
2023-01-23T07:07:22.804Z,-3.23
2023-01-23T07:08:22.798Z,-3.20
2023-01-23T07:09:22.831Z,-3.18
2023-01-23T07:10:22.768Z,-3.15
2023-01-23T07:11:22.785Z,-3.20
2023-01-23T07:12:22.756Z,-3.15
2023-01-23T07:13:22.758Z,-3.15
2023-01-23T07:14:22.738Z,-3.12
2023-01-23T07:15:22.743Z,-3.13
2023-01-23T07:16:22.772Z,-3.10
2023-01-23T07:17:22.814Z,-3.10
2023-01-23T07:18:22.704Z,-3.08
2023-01-23T07:19:22.834Z,-3.08
2023-01-23T07:20:23.247Z,-3.03
2023-01-23T07:21:22.714Z,-3.01
2023-01-23T07:22:22.704Z,-2.95
2023-01-23T07:23:22.651Z,-2.97
2023-01-23T07:24:22.652Z,-2.97
2023-01-23T07:25:22.792Z,-2.92
2023-01-23T07:26:22.615Z,-2.98
2023-01-23T07:27:22.623Z,-3.01
2023-01-23T07:28:22.617Z,-2.98
2023-01-23T07:29:22.590Z,-2.98
2023-01-23T07:30:23.027Z,-2.97
2023-01-23T07:31:22.766Z,-2.97
2023-01-23T07:32:22.857Z,-2.97
2023-01-23T07:33:22.578Z,-3.02
2023-01-23T07:34:22.540Z,-3.01
2023-01-23T07:35:22.630Z,-2.94
2023-01-23T07:36:22.552Z,-2.94
2023-01-23T07:37:22.496Z,-2.90
2023-01-23T07:38:22.562Z,-2.91
2023-01-23T07:39:22.506Z,-2.88
2023-01-23T07:40:22.794Z,-2.90
2023-01-23T07:41:22.474Z,-2.95
2023-01-23T07:42:22.472Z,-3.02
2023-01-23T07:43:22.444Z,-3.03
2023-01-23T07:44:22.443Z,-2.98
2023-01-23T07:45:22.421Z,-2.98
2023-01-23T07:46:22.595Z,-3.03
2023-01-23T07:47:22.466Z,-3.05
2023-01-23T07:48:22.401Z,-3.03
2023-01-23T07:49:22.376Z,-3.06
2023-01-23T07:50:22.646Z,-3.03
2023-01-23T07:51:22.516Z,-3.01
2023-01-23T07:52:22.455Z,-3.02
2023-01-23T07:53:22.339Z,-3.03
2023-01-23T07:54:22.327Z,-3.06
2023-01-23T07:55:22.372Z,-3.06
2023-01-23T07:56:22.311Z,-3.05
2023-01-23T07:57:22.303Z,-3.02
2023-01-23T07:58:22.320Z,-2.97
2023-01-23T07:59:22.276Z,-2.98
2023-01-23T08:00:24.375Z,-2.97
2023-01-23T08:01:22.324Z,-2.97
2023-01-23T08:02:22.277Z,-2.97
2023-01-23T08:03:22.274Z,-2.95
2023-01-23T08:04:22.234Z,-2.94
2023-01-23T08:05:22.205Z,-2.98
2023-01-23T08:06:22.235Z,-2.98
2023-01-23T08:07:22.296Z,-2.98
2023-01-23T08:08:22.204Z,-3.01
2023-01-23T08:09:22.228Z,-2.98
2023-01-23T08:10:22.970Z,-2.94
2023-01-23T08:11:22.236Z,-2.88
2023-01-23T08:12:22.178Z,-2.85
2023-01-23T08:13:22.269Z,-2.85
2023-01-23T08:14:22.215Z,-2.80
2023-01-23T08:15:22.147Z,-2.82
2023-01-23T08:16:22.182Z,-2.82
2023-01-23T08:17:27.061Z,-2.82
2023-01-23T08:18:22.172Z,-2.79
2023-01-23T08:19:22.084Z,-2.74
2023-01-23T08:20:22.515Z,-2.77
2023-01-23T08:21:22.048Z,-2.79
2023-01-23T08:22:22.296Z,-2.80
2023-01-23T08:23:22.187Z,-2.80
2023-01-23T08:24:22.124Z,-2.80
2023-01-23T08:25:22.193Z,-2.76
2023-01-23T08:26:22.033Z,-2.70
2023-01-23T08:27:22.033Z,-2.74
2023-01-23T08:28:22.054Z,-2.72
2023-01-23T08:29:21.973Z,-2.69
2023-01-23T08:30:22.503Z,-2.70
2023-01-23T08:31:22.167Z,-2.72
2023-01-23T08:32:21.943Z,-2.72
2023-01-23T08:33:21.966Z,-2.72
2023-01-23T08:34:21.964Z,-2.76
2023-01-23T08:35:21.904Z,-2.80
2023-01-23T08:36:21.949Z,-2.74
2023-01-23T08:37:22.039Z,-2.73
2023-01-23T08:38:21.873Z,-2.70
2023-01-23T08:39:22.008Z,-2.73
2023-01-23T08:40:22.234Z,-2.70
2023-01-23T08:41:21.845Z,-2.70
2023-01-23T08:42:21.955Z,-2.72
2023-01-23T08:43:21.837Z,-2.73
2023-01-23T08:44:21.896Z,-2.74
2023-01-23T08:45:21.806Z,-2.72
2023-01-23T08:46:21.820Z,-2.73
2023-01-23T08:47:21.945Z,-2.74
2023-01-23T08:48:22.077Z,-2.79
2023-01-23T08:49:21.908Z,-2.80
2023-01-23T08:50:22.226Z,-2.79
2023-01-23T08:51:21.805Z,-2.80
2023-01-23T08:52:21.765Z,-2.82
2023-01-23T08:53:21.810Z,-2.80
2023-01-23T08:54:21.725Z,-2.80
2023-01-23T08:55:21.844Z,-2.77
2023-01-23T08:56:21.718Z,-2.77
2023-01-23T08:57:21.685Z,-2.79
2023-01-23T08:58:21.714Z,-2.74
2023-01-23T08:59:22.801Z,-2.72
2023-01-23T09:00:22.217Z,-2.74
2023-01-23T09:01:21.694Z,-2.82
2023-01-23T09:02:21.829Z,-2.85
2023-01-23T09:03:21.649Z,-2.84
2023-01-23T09:04:21.613Z,-2.84
2023-01-23T09:05:21.703Z,-2.79
2023-01-23T09:06:21.625Z,-2.77
2023-01-23T09:07:21.680Z,-2.77
2023-01-23T09:08:21.560Z,-2.74
2023-01-23T09:09:21.641Z,-2.73
2023-01-23T09:10:21.922Z,-2.74
2023-01-23T09:11:21.562Z,-2.76
2023-01-23T09:12:21.525Z,-2.76
2023-01-23T09:13:21.613Z,-2.74
2023-01-23T09:14:21.606Z,-2.73
2023-01-23T09:15:22.258Z,-2.73
2023-01-23T09:16:21.724Z,-2.69
2023-01-23T09:17:36.392Z,-2.72
2023-01-23T09:18:21.529Z,-2.76
2023-01-23T09:19:21.463Z,-2.77
2023-01-23T09:20:21.829Z,-2.76
2023-01-23T09:21:21.620Z,-2.84
2023-01-23T09:22:21.966Z,-2.85
2023-01-23T09:23:21.482Z,-2.85
2023-01-23T09:24:21.405Z,-2.85
2023-01-23T09:25:21.442Z,-2.84
2023-01-23T09:26:21.480Z,-2.79
2023-01-23T09:27:21.647Z,-2.72
2023-01-23T09:28:21.418Z,-2.77
2023-01-23T09:29:21.387Z,-2.79
2023-01-23T09:30:21.744Z,-2.76
2023-01-23T09:31:21.429Z,-2.72
2023-01-23T09:32:21.472Z,-2.70
2023-01-23T09:33:21.330Z,-2.72
2023-01-23T09:34:21.365Z,-2.73
2023-01-23T09:35:21.350Z,-2.72
2023-01-23T09:36:30.429Z,-2.70
2023-01-23T09:37:22.296Z,-2.64
2023-01-23T09:38:21.338Z,-2.66
2023-01-23T09:39:21.253Z,-2.63
2023-01-23T09:40:21.755Z,-2.59
2023-01-23T09:41:21.243Z,-2.56
2023-01-23T09:42:21.307Z,-2.56
2023-01-23T09:43:21.372Z,-2.56
2023-01-23T09:44:21.253Z,-2.54
2023-01-23T09:45:21.302Z,-2.51
2023-01-23T09:46:21.226Z,-2.48
2023-01-23T09:47:21.251Z,-2.48
2023-01-23T09:48:21.229Z,-2.45
2023-01-23T09:49:21.301Z,-2.41
2023-01-23T09:50:21.491Z,-2.38
2023-01-23T09:51:21.171Z,-2.41
2023-01-23T09:52:21.172Z,-2.40
2023-01-23T09:53:21.122Z,-2.40
2023-01-23T09:54:21.171Z,-2.40
2023-01-23T09:55:21.088Z,-2.41
2023-01-23T09:56:21.088Z,-2.38
2023-01-23T09:57:21.085Z,-2.41
2023-01-23T09:58:21.087Z,-2.41
2023-01-23T09:59:22.872Z,-2.43
2023-01-23T10:00:21.306Z,-2.40
2023-01-23T10:01:21.134Z,-2.37
2023-01-23T10:02:21.057Z,-2.35
2023-01-23T10:03:21.017Z,-2.38
2023-01-23T10:04:21.021Z,-2.45
2023-01-23T10:05:21.095Z,-2.38
2023-01-23T10:06:21.053Z,-2.38
2023-01-23T10:07:21.370Z,-2.35
2023-01-23T10:08:21.177Z,-2.34
2023-01-23T10:09:21.148Z,-2.33
2023-01-23T10:10:21.336Z,-2.33
2023-01-23T10:11:21.013Z,-2.33
2023-01-23T10:12:20.979Z,-2.29
2023-01-23T10:13:20.943Z,-2.22
2023-01-23T10:14:20.954Z,-2.19
2023-01-23T10:15:21.390Z,-2.22
2023-01-23T10:16:20.993Z,-2.22
2023-01-23T10:17:21.113Z,-2.22
2023-01-23T10:18:20.895Z,-2.19
2023-01-23T10:19:20.902Z,-2.22
2023-01-23T10:20:21.343Z,-2.22
2023-01-23T10:21:20.933Z,-2.26
2023-01-23T10:22:23.119Z,-2.26
2023-01-23T10:23:20.817Z,-2.26
2023-01-23T10:24:22.946Z,-2.22
2023-01-23T10:25:21.139Z,-2.19
2023-01-23T10:26:21.793Z,-2.18
2023-01-23T10:27:20.810Z,-2.18
2023-01-23T10:28:20.824Z,-2.21
2023-01-23T10:29:20.819Z,-2.18
2023-01-23T10:30:21.266Z,-2.18
2023-01-23T10:31:20.991Z,-2.21
2023-01-23T10:32:20.777Z,-2.24
2023-01-23T10:33:20.923Z,-2.22
2023-01-23T10:34:20.776Z,-2.21
2023-01-23T10:35:21.220Z,-2.19
2023-01-23T10:36:24.262Z,-2.22
2023-01-23T10:37:21.342Z,-2.24
2023-01-23T10:38:20.705Z,-2.24
2023-01-23T10:39:20.661Z,-2.19
2023-01-23T10:40:21.036Z,-2.19
2023-01-23T10:41:23.199Z,-2.19
2023-01-23T10:42:20.635Z,-2.22
2023-01-23T10:43:20.699Z,-2.21
2023-01-23T10:44:20.587Z,-2.21
2023-01-23T10:45:20.992Z,-2.24
2023-01-23T10:46:20.836Z,-2.19
2023-01-23T10:47:20.686Z,-2.22
2023-01-23T10:48:20.557Z,-2.21
2023-01-23T10:49:20.656Z,-2.24
2023-01-23T10:50:20.637Z,-2.26
2023-01-23T10:51:20.617Z,-2.27
2023-01-23T10:52:21.374Z,-2.27
2023-01-23T10:53:20.575Z,-2.24
2023-01-23T10:54:31.338Z,-2.26
2023-01-23T10:55:21.825Z,-2.19
2023-01-23T10:56:20.486Z,-2.22
2023-01-23T10:57:20.527Z,-2.21
2023-01-23T10:58:20.634Z,-2.29
2023-01-23T10:59:20.493Z,-2.26
2023-01-23T11:00:20.458Z,-2.27
2023-01-23T11:01:21.323Z,-2.26
2023-01-23T11:02:20.712Z,-2.24
2023-01-23T11:03:20.593Z,-2.21
2023-01-23T11:04:20.450Z,-2.19
2023-01-23T11:05:20.824Z,-2.16
2023-01-23T11:06:20.433Z,-2.22
2023-01-23T11:07:20.490Z,-2.19
2023-01-23T11:08:20.411Z,-2.22
2023-01-23T11:09:20.399Z,-2.22
2023-01-23T11:10:20.328Z,-2.21
2023-01-23T11:11:20.345Z,-2.26
2023-01-23T11:12:20.308Z,-2.29
2023-01-23T11:13:20.399Z,-2.33
2023-01-23T11:14:20.280Z,-2.29
2023-01-23T11:15:20.740Z,-2.27
2023-01-23T11:16:20.367Z,-2.22
2023-01-23T11:17:20.248Z,-2.21
2023-01-23T11:18:20.296Z,-2.18
2023-01-23T11:19:20.382Z,-2.24
2023-01-23T11:20:20.227Z,-2.22
2023-01-23T11:21:20.228Z,-2.19
2023-01-23T11:22:20.201Z,-2.14
2023-01-23T11:23:20.259Z,-2.15
2023-01-23T11:24:24.904Z,-2.15
2023-01-23T11:25:21.444Z,-2.16
2023-01-23T11:26:20.155Z,-2.16
2023-01-23T11:27:20.264Z,-2.15
2023-01-23T11:28:20.271Z,-2.15
2023-01-23T11:29:20.213Z,-2.16
2023-01-23T11:30:27.632Z,-2.16
2023-01-23T11:31:20.240Z,-2.16
2023-01-23T11:32:20.281Z,-2.12
2023-01-23T11:33:20.088Z,-2.12
2023-01-23T11:34:20.096Z,-2.12
2023-01-23T11:35:20.740Z,-2.19
2023-01-23T11:36:20.054Z,-2.19
2023-01-23T11:37:20.043Z,-2.18
2023-01-23T11:38:30.250Z,-2.18
2023-01-23T11:39:21.160Z,-2.14
2023-01-23T11:40:20.048Z,-2.11
2023-01-23T11:41:20.008Z,-2.12
2023-01-23T11:42:20.043Z,-2.15
2023-01-23T11:43:19.985Z,-2.14
2023-01-23T11:44:21.148Z,-2.12
2023-01-23T11:45:21.064Z,-2.14
2023-01-23T11:46:20.060Z,-2.14
2023-01-23T11:47:19.999Z,-2.18
2023-01-23T11:48:19.937Z,-2.11
2023-01-23T11:49:19.936Z,-2.06
2023-01-23T11:50:19.946Z,-2.08
2023-01-23T11:51:20.180Z,-2.15
2023-01-23T11:52:19.947Z,-2.19
2023-01-23T11:53:21.189Z,-2.18
2023-01-23T11:54:19.894Z,-2.18
2023-01-23T11:55:20.200Z,-2.18
2023-01-23T11:56:19.869Z,-2.21
2023-01-23T11:57:19.989Z,-2.21
2023-01-23T11:58:19.837Z,-2.21
2023-01-23T11:59:19.821Z,-2.18
2023-01-23T12:00:20.292Z,-2.16
2023-01-23T12:01:19.802Z,-2.15
2023-01-23T12:02:19.855Z,-2.12
2023-01-23T12:03:19.846Z,-2.09
2023-01-23T12:04:19.786Z,-2.08
2023-01-23T12:05:20.346Z,-2.03
2023-01-23T12:06:20.585Z,-2.03
2023-01-23T12:07:19.886Z,-2.03
2023-01-23T12:08:19.791Z,-2.03
2023-01-23T12:09:19.741Z,-1.98
2023-01-23T12:10:19.706Z,-1.97
2023-01-23T12:11:19.732Z,-2.00
2023-01-23T12:12:19.697Z,-2.03
2023-01-23T12:13:19.704Z,-1.97
2023-01-23T12:14:19.728Z,-1.98
2023-01-23T12:15:19.659Z,-2.01
2023-01-23T12:16:19.802Z,-2.04
2023-01-23T12:17:19.649Z,-2.03
2023-01-23T12:18:19.731Z,-2.04
2023-01-23T12:19:19.733Z,-2.08
2023-01-23T12:20:20.173Z,-2.08
2023-01-23T12:21:19.689Z,-2.03
2023-01-23T12:22:19.579Z,-2.04
2023-01-23T12:23:19.724Z,-1.98
2023-01-23T12:24:19.575Z,-1.97
2023-01-23T12:25:19.985Z,-1.97
2023-01-23T12:26:19.597Z,-1.94
2023-01-23T12:27:19.545Z,-1.93
2023-01-23T12:28:19.610Z,-1.91
2023-01-23T12:29:19.544Z,-1.90
2023-01-23T12:30:19.937Z,-1.86
2023-01-23T12:31:19.642Z,-1.78
2023-01-23T12:32:19.638Z,-1.79
2023-01-23T12:33:19.480Z,-1.90
2023-01-23T12:34:19.472Z,-1.90
2023-01-23T12:35:22.332Z,-1.91
2023-01-23T12:36:19.490Z,-1.88
2023-01-23T12:37:29.878Z,-1.80
2023-01-23T12:38:20.533Z,-1.83
2023-01-23T12:39:19.580Z,-1.88
2023-01-23T12:40:19.773Z,-1.93
2023-01-23T12:41:19.874Z,-1.91
2023-01-23T12:42:19.387Z,-1.86
2023-01-23T12:43:19.397Z,-1.82
2023-01-23T12:44:19.403Z,-1.79
2023-01-23T12:45:19.781Z,-1.86
2023-01-23T12:46:19.355Z,-1.93
2023-01-23T12:47:19.405Z,-1.90
2023-01-23T12:48:19.330Z,-1.88
2023-01-23T12:49:19.325Z,-1.88
2023-01-23T12:50:19.318Z,-1.88
2023-01-23T12:51:19.329Z,-1.88
2023-01-23T12:52:19.462Z,-1.80